Time;durP1;ratioP1;P1;durP2;ratioP2;P2;SDS_P1;SDS_P2;PMS_P1;PMS_P2;Temp;Humidity;BMP_temperature;BMP_pressure;BME280_temperature;BME280_humidity;BME280_pressure;Samples;Min_cycle;Max_cycle;Signal;HPM_P1;HPM_P2
2022/07/20 00:02:01;;;;;;;0.00;0.00;;;22.60;48.60;;;;;;5035684;28;20022;-73
2022/07/20 00:04:27;;;;;;;1.35;1.30;;;22.70;48.60;;;;;;5034487;28;20096;-72
2022/07/20 00:06:54;;;;;;;0.00;0.00;;;22.70;48.50;;;;;;5034299;28;20068;-72
2022/07/20 00:12:05;;;;;;;0.50;0.25;;;22.90;48.30;;;;;;5035380;28;20087;-73
2022/07/20 00:14:32;;;;;;;0.10;0.10;;;22.80;47.90;;;;;;5035993;28;20079;-72
2022/07/20 00:16:58;;;;;;;0.15;0.10;;;22.90;48.10;;;;;;5035519;28;20074;-73
2022/07/20 00:19:24;;;;;;;0.38;0.38;;;23.00;47.90;;;;;;5035374;28;20522;-72
2022/07/20 00:21:50;;;;;;;0.25;0.25;;;22.90;48.10;;;;;;5035449;28;20026;-74
2022/07/20 00:24:16;;;;;;;0.93;0.70;;;22.90;48.20;;;;;;5034054;28;20060;-73
2022/07/20 00:26:43;;;;;;;0.00;0.00;;;23.00;47.80;;;;;;5034218;28;20025;-73
2022/07/20 00:29:09;;;;;;;0.08;0.08;;;22.90;48.00;;;;;;5035547;28;20033;-73
2022/07/20 00:31:35;;;;;;;9.27;0.75;;;23.10;47.80;;;;;;5035207;28;20036;-73
2022/07/20 00:34:01;;;;;;;0.00;0.00;;;23.30;47.60;;;;;;5035323;28;20472;-73
2022/07/20 00:36:27;;;;;;;0.00;0.00;;;23.20;47.40;;;;;;5034029;28;20036;-73
2022/07/20 00:38:53;;;;;;;0.00;0.00;;;23.50;47.00;;;;;;5033564;28;20021;-73
2022/07/20 00:41:19;;;;;;;0.38;0.28;;;24.00;46.30;;;;;;5049956;28;20024;-73
2022/07/20 00:44:03;;;;;;;0.00;0.00;;;24.10;46.00;;;;;;5055466;28;20037;-74
2022/07/20 00:46:33;;;;;;;0.00;0.00;;;24.40;45.50;;;;;;5044414;28;20053;-79
2022/07/20 00:49:00;;;;;;;0.05;0.00;;;24.90;44.90;;;;;;5037227;28;20036;-78
2022/07/20 00:51:26;;;;;;;0.32;0.32;;;25.40;43.90;;;;;;5038696;28;20064;-79
2022/07/20 00:53:53;;;;;;;0.03;0.03;;;25.90;43.10;;;;;;5048466;28;20064;-76
2022/07/20 00:56:20;;;;;;;0.00;0.00;;;26.20;42.60;;;;;;5054849;28;20422;-77
2022/07/20 00:58:47;;;;;;;0.00;0.00;;;26.40;42.40;;;;;;5054963;28;20017;-78
2022/07/20 01:01:14;;;;;;;0.00;0.00;;;26.90;41.90;;;;;;5054675;28;20589;-77
2022/07/20 01:03:40;;;;;;;0.00;0.00;;;27.50;41.00;;;;;;5055477;28;20037;-78
2022/07/20 01:06:07;;;;;;;0.03;0.03;;;27.70;40.40;;;;;;5055392;28;20036;-77
2022/07/20 01:08:33;;;;;;;0.00;0.00;;;28.00;40.10;;;;;;5054315;28;20035;-77
2022/07/20 01:11:01;;;;;;;0.00;0.00;;;28.60;39.40;;;;;;5053154;28;20025;-76
2022/07/20 01:13:28;;;;;;;0.45;0.35;;;28.80;38.80;;;;;;5054504;28;20028;-76
2022/07/20 01:15:54;;;;;;;3.20;1.85;;;28.80;38.60;;;;;;5052821;28;20525;-76
2022/07/20 01:18:20;;;;;;;5.85;1.85;;;28.60;39.00;;;;;;5053056;28;20017;-76
2022/07/20 01:20:49;;;;;;;1.92;0.55;;;27.90;40.00;;;;;;5054518;28;20598;-77
2022/07/20 01:23:16;;;;;;;0.03;0.03;;;27.70;40.70;;;;;;5054755;28;20033;-77
2022/07/20 01:25:43;;;;;;;0.30;0.30;;;27.80;41.00;;;;;;5053783;28;20554;-78
2022/07/20 01:28:11;;;;;;;1.23;0.77;;;27.90;40.50;;;;;;5051025;28;20063;-78
2022/07/20 01:30:40;;;;;;;9.60;1.23;;;27.60;40.70;;;;;;5052543;28;20048;-78
2022/07/20 01:33:08;;;;;;;28.13;1.20;;;26.80;41.30;;;;;;5051859;28;20114;-79
2022/07/20 01:35:34;;;;;;;5.22;1.77;;;26.50;42.50;;;;;;5053653;28;20083;-79
2022/07/20 01:38:00;;;;;;;0.00;0.00;;;26.40;42.30;;;;;;5053820;28;20017;-78
2022/07/20 01:40:26;;;;;;;0.28;0.28;;;26.30;43.50;;;;;;5056544;28;20021;-79
2022/07/20 01:42:52;;;;;;;1.02;0.85;;;26.60;42.70;;;;;;5053574;28;20119;-80
2022/07/20 01:45:19;;;;;;;0.30;0.30;;;26.90;42.10;;;;;;5050637;28;20515;-78
2022/07/20 01:47:45;;;;;;;0.25;0.20;;;27.10;41.70;;;;;;5048538;28;20053;-79
2022/07/20 01:50:14;;;;;;;0.95;0.55;;;27.50;41.20;;;;;;5056402;28;20033;-79
2022/07/20 01:52:40;;;;;;;1.65;0.82;;;27.60;40.80;;;;;;5064695;28;20071;-77
2022/07/20 01:55:07;;;;;;;2.17;1.25;;;27.50;40.00;;;;;;5069950;28;20041;-79
2022/07/20 01:57:33;;;;;;;1.27;1.10;;;27.20;40.10;;;;;;5065893;28;20094;-79
2022/07/20 01:59:59;;;;;;;2.00;0.65;;;26.90;40.50;;;;;;5069319;28;20044;-78
2022/07/20 02:02:25;;;;;;;1.58;1.48;;;27.10;40.80;;;;;;5057884;28;20009;-80
2022/07/20 02:04:51;;;;;;;0.60;0.40;;;27.20;40.10;;;;;;5063695;28;20485;-79
2022/07/20 02:07:17;;;;;;;0.28;0.28;;;27.30;40.10;;;;;;5070414;28;20059;-79
2022/07/20 02:09:43;;;;;;;1.33;0.60;;;27.60;39.80;;;;;;5064922;28;20033;-78
2022/07/20 02:12:12;;;;;;;1.90;0.70;;;27.80;39.30;;;;;;5064971;28;20036;-78
2022/07/20 02:14:38;;;;;;;2.08;0.57;;;27.70;39.20;;;;;;5061537;28;20113;-79
2022/07/20 02:17:04;;;;;;;4.13;1.45;;;27.60;39.70;;;;;;5063624;28;20017;-79
2022/07/20 02:19:30;;;;;;;8.30;1.48;;;27.80;39.90;;;;;;5055653;28;20020;-79
2022/07/20 02:21:56;;;;;;;6.72;2.55;;;28.30;39.30;;;;;;5052077;28;20032;-78
2022/07/20 02:24:22;;;;;;;9.15;1.70;;;28.40;39.10;;;;;;5053350;28;20029;-78
2022/07/20 02:26:48;;;;;;;6.18;1.73;;;28.90;38.80;;;;;;5051459;28;20086;-77
2022/07/20 02:29:14;;;;;;;0.45;0.45;;;29.30;38.30;;;;;;5047616;28;20363;-78
2022/07/20 02:31:40;;;;;;;3.67;0.82;;;29.80;38.50;;;;;;5048076;28;20053;-78
2022/07/20 02:34:06;;;;;;;11.80;0.63;;;30.10;37.40;;;;;;5049598;28;20028;-80
2022/07/20 02:36:32;;;;;;;23.33;3.08;;;30.20;37.50;;;;;;5048038;28;20445;-79
2022/07/20 02:38:58;;;;;;;6.72;2.05;;;30.30;37.20;;;;;;5047999;28;20017;-78
2022/07/20 02:41:24;;;;;;;24.65;1.55;;;30.50;36.80;;;;;;5047009;28;20495;-78
2022/07/20 02:43:50;;;;;;;1.98;0.93;;;30.50;37.50;;;;;;5045838;28;20025;-79
2022/07/20 02:46:16;;;;;;;0.98;0.35;;;30.80;36.70;;;;;;5044670;28;20032;-79
2022/07/20 02:48:42;;;;;;;0.25;0.10;;;31.30;36.10;;;;;;5046619;28;20120;-77
2022/07/20 02:51:08;;;;;;;4.22;1.48;;;31.40;35.70;;;;;;5050373;28;20028;-79
2022/07/20 02:53:34;;;;;;;2.58;0.88;;;31.30;35.00;;;;;;5053271;28;20045;-80
2022/07/20 02:56:00;;;;;;;2.03;1.15;;;31.80;34.20;;;;;;5049283;28;20021;-79
2022/07/20 02:58:27;;;;;;;1.52;0.73;;;32.00;33.40;;;;;;5049430;28;20119;-76
2022/07/20 03:00:52;;;;;;;0.68;0.47;;;31.40;32.60;;;;;;5042764;28;20021;-76
2022/07/20 03:03:19;;;;;;;2.38;1.30;;;31.70;32.20;;;;;;5043714;28;20037;-76
2022/07/20 03:05:45;;;;;;;0.57;0.40;;;31.70;32.20;;;;;;5042162;28;20481;-75
2022/07/20 03:08:11;;;;;;;3.15;0.95;;;31.30;32.10;;;;;;5035377;28;20123;-75
2022/07/20 03:10:37;;;;;;;0.50;0.50;;;31.30;32.40;;;;;;5049775;28;20154;-75
2022/07/20 03:13:03;;;;;;;6.95;2.15;;;31.20;32.20;;;;;;5049662;28;20029;-75
2022/07/20 03:15:29;;;;;;;0.00;0.00;;;31.40;32.50;;;;;;5047328;28;20448;-75
2022/07/20 03:17:59;;;;;;;0.45;0.25;;;31.90;32.40;;;;;;5050663;28;20127;-76
2022/07/20 03:20:33;;;;;;;0.03;0.03;;;32.00;31.50;;;;;;5055578;28;20031;-75
2022/07/20 03:23:00;;;;;;;8.30;1.25;;;32.20;31.50;;;;;;5059928;28;20025;-74
2022/07/20 03:25:26;;;;;;;1.77;0.85;;;32.00;30.30;;;;;;5052988;28;20399;-77
2022/07/20 03:27:57;;;;;;;0.00;0.00;;;32.00;30.70;;;;;;5051987;28;20033;-77
2022/07/20 03:30:24;;;;;;;0.10;0.10;;;32.00;31.40;;;;;;5051719;28;20033;-78
2022/07/20 03:32:50;;;;;;;0.98;0.95;;;32.40;30.50;;;;;;5050731;28;20028;-76
2022/07/20 03:35:17;;;;;;;0.55;0.43;;;32.40;30.30;;;;;;5059326;28;20414;-76
2022/07/20 03:37:43;;;;;;;4.07;0.80;;;32.10;30.10;;;;;;5049890;28;20021;-76
2022/07/20 03:40:09;;;;;;;9.13;2.40;;;32.60;30.20;;;;;;5052494;28;20503;-77
2022/07/20 03:42:36;;;;;;;0.10;0.10;;;32.60;30.50;;;;;;5053488;28;20032;-78
2022/07/20 03:45:02;;;;;;;1.05;0.88;;;32.60;31.70;;;;;;5050124;28;20025;-81
2022/07/20 03:47:29;;;;;;;0.40;0.32;;;32.60;30.10;;;;;;5049861;28;20047;-87
2022/07/20 03:49:55;;;;;;;2.95;1.15;;;32.20;30.00;;;;;;5065962;28;20476;-85
2022/07/20 03:52:21;;;;;;;4.10;0.88;;;32.20;29.80;;;;;;5055293;28;20024;-86
2022/07/20 03:54:48;;;;;;;0.47;0.30;;;31.80;30.00;;;;;;5051472;28;20033;-81
2022/07/20 03:57:14;;;;;;;0.45;0.10;;;31.60;29.80;;;;;;5056446;28;20096;-83
2022/07/20 03:59:40;;;;;;;0.88;0.52;;;31.40;30.20;;;;;;5065547;28;20025;-86
2022/07/20 04:02:06;;;;;;;0.47;0.47;;;31.10;30.70;;;;;;5078480;28;20040;-84
2022/07/20 04:04:32;;;;;;;0.32;0.32;;;31.20;31.00;;;;;;5072481;28;20026;-84
2022/07/20 04:07:01;;;;;;;10.18;1.27;;;30.90;30.60;;;;;;5077929;28;20009;-73
2022/07/20 04:12:20;;;;;;;0.88;0.50;;;30.90;29.90;;;;;;5053917;28;20032;-73
2022/07/20 04:14:49;;;;;;;1.45;1.17;;;31.00;29.70;;;;;;5042761;28;20073;-73
2022/07/20 04:17:16;;;;;;;2.80;1.00;;;31.00;30.00;;;;;;5044514;28;20056;-72
2022/07/20 04:19:42;;;;;;;1.38;0.43;;;31.20;29.20;;;;;;5047639;28;20028;-71
2022/07/20 04:22:08;;;;;;;2.28;0.77;;;31.00;29.60;;;;;;5049965;28;20032;-72
2022/07/20 04:24:34;;;;;;;0.98;0.82;;;31.10;29.40;;;;;;5049880;28;20503;-72
2022/07/20 04:27:01;;;;;;;1.77;0.85;;;31.20;29.50;;;;;;5051146;28;20035;-74
2022/07/20 04:29:28;;;;;;;0.63;0.20;;;30.90;28.90;;;;;;5066573;28;20227;-73
2022/07/20 04:31:54;;;;;;;0.35;0.30;;;30.90;29.40;;;;;;5052437;28;20459;-73
2022/07/20 04:34:20;;;;;;;0.75;0.32;;;30.90;29.00;;;;;;5050515;28;20314;-73
2022/07/20 04:36:46;;;;;;;0.52;0.32;;;30.90;28.60;;;;;;5054066;28;20028;-74
2022/07/20 04:39:13;;;;;;;0.90;0.40;;;31.00;29.10;;;;;;5052748;28;20051;-74
2022/07/20 04:41:39;;;;;;;2.20;1.70;;;31.00;29.10;;;;;;5053387;28;20391;-74
2022/07/20 04:44:06;;;;;;;0.40;0.40;;;31.20;29.70;;;;;;5048571;28;20036;-73
2022/07/20 04:46:32;;;;;;;0.60;0.52;;;31.10;28.90;;;;;;5047093;28;20052;-73
2022/07/20 04:48:58;;;;;;;2.05;0.40;;;30.90;29.00;;;;;;5048782;28;20029;-74
2022/07/20 04:51:24;;;;;;;0.00;0.00;;;31.10;28.60;;;;;;5051100;28;21628;-74
2022/07/20 04:53:51;;;;;;;0.60;0.47;;;31.20;29.40;;;;;;5049424;28;20140;-75
2022/07/20 04:56:18;;;;;;;0.43;0.40;;;31.30;28.90;;;;;;5048653;28;20025;-74
2022/07/20 04:58:50;;;;;;;0.00;0.00;;;31.40;28.10;;;;;;5047782;28;20035;-75
2022/07/20 05:01:16;;;;;;;0.38;0.30;;;31.40;28.20;;;;;;5046850;28;20058;-75
2022/07/20 05:03:43;;;;;;;1.15;0.73;;;31.40;28.30;;;;;;5052579;28;20037;-75
2022/07/20 05:06:09;;;;;;;0.17;0.17;;;31.60;26.80;;;;;;5045319;28;20025;-74
2022/07/20 05:08:35;;;;;;;2.53;0.52;;;31.70;27.20;;;;;;5047709;28;20025;-80
2022/07/20 05:11:01;;;;;;;4.90;0.45;;;;;;;;;;5052375;28;20025;-79
2022/07/20 05:13:27;;;;;;;0.32;0.30;;;31.80;26.30;;;;;;5050843;28;20029;-81
2022/07/20 05:15:56;;;;;;;0.47;0.40;;;31.70;26.60;;;;;;5068232;28;20029;-81
2022/07/20 05:18:22;;;;;;;0.10;0.10;;;32.00;26.50;;;;;;5064055;28;20025;-81
2022/07/20 05:20:48;;;;;;;0.10;0.10;;;32.00;26.70;;;;;;5070106;28;20017;-79
2022/07/20 05:23:17;;;;;;;0.30;0.30;;;32.00;26.10;;;;;;5061109;28;20036;-79
2022/07/20 05:25:43;;;;;;;1.90;0.90;;;32.20;26.30;;;;;;5048175;28;20037;-79
2022/07/20 05:28:09;;;;;;;0.40;0.38;;;32.40;27.00;;;;;;5051053;28;20080;-79
2022/07/20 05:30:35;;;;;;;0.10;0.10;;;32.30;27.00;;;;;;5054058;28;20082;-78
2022/07/20 05:33:01;;;;;;;0.75;0.73;;;32.00;26.80;;;;;;5062235;28;20028;-76
2022/07/20 05:35:27;;;;;;;0.82;0.30;;;32.20;27.10;;;;;;5065269;28;20040;-80
2022/07/20 05:37:56;;;;;;;0.75;0.28;;;32.30;27.10;;;;;;5050252;28;20442;-81
2022/07/20 05:40:23;;;;;;;0.13;0.10;;;32.20;27.20;;;;;;5049365;28;20159;-80
2022/07/20 05:42:49;;;;;;;0.32;0.25;;;32.10;27.90;;;;;;5048119;28;20013;-81
2022/07/20 05:45:15;;;;;;;1.15;0.47;;;32.40;27.10;;;;;;5043482;28;20075;-81
2022/07/20 05:47:41;;;;;;;1.40;0.30;;;32.40;26.10;;;;;;5046546;28;20021;-81
2022/07/20 05:50:07;;;;;;;0.20;0.10;;;32.00;26.70;;;;;;5045853;28;20021;-80
2022/07/20 05:52:33;;;;;;;4.20;0.45;;;32.10;27.20;;;;;;5049322;28;20013;-81
2022/07/20 05:55:00;;;;;;;3.90;0.63;;;32.40;27.30;;;;;;5047380;28;20148;-80
2022/07/20 05:57:26;;;;;;;0.32;0.20;;;32.00;26.90;;;;;;5049294;28;20056;-79
2022/07/20 05:59:52;;;;;;;0.73;0.30;;;32.20;27.00;;;;;;5052131;28;20348;-81
2022/07/20 06:02:21;;;;;;;1.35;0.45;;;32.50;27.10;;;;;;5052216;28;20025;-82
2022/07/20 06:04:47;;;;;;;0.88;0.50;;;32.60;27.30;;;;;;5052394;28;20025;-79
2022/07/20 06:07:13;;;;;;;0.00;0.00;;;32.60;26.00;;;;;;5047139;28;20543;-80
2022/07/20 06:09:40;;;;;;;0.40;0.28;;;32.60;26.10;;;;;;5045416;28;20075;-80
2022/07/20 06:12:19;;;;;;;1.20;0.45;;;32.70;25.80;;;;;;5042687;28;20066;-79
2022/07/20 06:14:45;;;;;;;4.93;0.68;;;32.60;25.90;;;;;;5059039;28;20442;-80
2022/07/20 06:17:12;;;;;;;0.38;0.17;;;32.40;25.50;;;;;;5049474;28;20028;-78
2022/07/20 06:19:38;;;;;;;0.90;0.25;;;32.50;25.80;;;;;;5069383;28;20033;-79
2022/07/20 06:22:04;;;;;;;2.83;1.67;;;32.50;24.90;;;;;;5061709;28;20017;-78
2022/07/20 06:24:30;;;;;;;13.02;1.73;;;32.70;25.00;;;;;;5050362;28;20039;-78
2022/07/20 06:26:56;;;;;;;1.38;0.52;;;32.60;25.10;;;;;;5048783;28;20033;-78
2022/07/20 06:29:22;;;;;;;0.65;0.38;;;32.60;25.30;;;;;;5047066;28;20103;-79
2022/07/20 06:31:48;;;;;;;1.95;0.88;;;32.60;25.30;;;;;;5050364;28;20029;-79
2022/07/20 06:34:14;;;;;;;0.10;0.10;;;32.60;25.60;;;;;;5046912;28;20420;-80
2022/07/20 06:36:42;;;;;;;4.53;0.82;;;32.60;25.70;;;;;;5046893;28;20479;-78
2022/07/20 06:39:15;;;;;;;1.80;0.68;;;32.60;25.30;;;;;;5046259;28;20028;-78
2022/07/20 06:41:41;;;;;;;1.45;0.55;;;32.70;25.30;;;;;;5048890;28;20052;-79
2022/07/20 06:44:07;;;;;;;0.35;0.25;;;32.50;25.80;;;;;;5045176;28;20028;-78
2022/07/20 06:46:33;;;;;;;0.17;0.17;;;32.90;25.30;;;;;;5046113;28;20436;-79
2022/07/20 06:48:59;;;;;;;0.75;0.35;;;33.10;25.10;;;;;;5049375;28;20025;-78
2022/07/20 06:51:26;;;;;;;4.50;0.68;;;33.20;25.50;;;;;;5048694;28;20033;-79
2022/07/20 06:53:52;;;;;;;0.25;0.15;;;33.20;25.00;;;;;;5052346;28;20041;-79
2022/07/20 06:56:18;;;;;;;1.08;0.88;;;33.00;24.50;;;;;;5069615;28;20093;-78
2022/07/20 06:58:44;;;;;;;0.28;0.20;;;33.10;25.10;;;;;;5061199;28;20029;-77
2022/07/20 07:01:10;;;;;;;0.22;0.22;;;33.00;23.80;;;;;;5058312;28;20124;-78
2022/07/20 07:03:36;;;;;;;0.00;0.00;;;33.20;23.90;;;;;;5049258;28;20025;-77
2022/07/20 07:06:02;;;;;;;0.00;0.00;;;33.00;23.50;;;;;;5051306;28;20033;-77
2022/07/20 07:08:29;;;;;;;0.00;0.00;;;32.90;22.30;;;;;;5051149;28;20096;-78
2022/07/20 07:10:55;;;;;;;0.80;0.80;;;33.10;22.70;;;;;;5044772;28;20120;-78
2022/07/20 07:13:21;;;;;;;0.00;0.00;;;33.10;22.80;;;;;;5044194;28;20025;-80
2022/07/20 07:15:48;;;;;;;0.10;0.10;;;33.20;24.50;;;;;;5047318;28;20083;-80
2022/07/20 07:18:14;;;;;;;0.10;0.10;;;33.50;23.20;;;;;;5052637;28;20048;-79
2022/07/20 07:20:40;;;;;;;0.00;0.00;;;34.00;23.70;;;;;;5051013;28;20025;-78
2022/07/20 07:23:06;;;;;;;0.50;0.15;;;34.00;22.40;;;;;;5051173;28;20145;-77
2022/07/20 07:25:32;;;;;;;0.40;0.25;;;33.90;22.20;;;;;;5049996;28;20036;-77
2022/07/20 07:27:58;;;;;;;2.50;0.82;;;33.90;21.20;;;;;;5046034;28;20040;-77
2022/07/20 07:30:24;;;;;;;0.00;0.00;;;33.50;21.80;;;;;;5046893;28;21456;-77
2022/07/20 07:32:50;;;;;;;0.57;0.40;;;33.50;21.80;;;;;;5048120;28;20021;-81
2022/07/20 07:35:16;;;;;;;0.32;0.32;;;33.60;21.70;;;;;;5045628;28;20029;-80
2022/07/20 07:37:42;;;;;;;0.00;0.00;;;33.60;20.90;;;;;;5047225;28;20045;-76
2022/07/20 07:40:09;;;;;;;0.25;0.20;;;33.80;21.60;;;;;;5048509;28;20036;-77
2022/07/20 07:42:35;;;;;;;0.17;0.10;;;33.90;19.40;;;;;;5040851;28;20390;-76
2022/07/20 07:45:06;;;;;;;0.00;0.00;;;33.90;19.90;;;;;;5046585;28;20632;-75
2022/07/20 07:47:33;;;;;;;0.20;0.20;;;33.80;16.40;;;;;;5050313;28;20021;-76
2022/07/20 07:49:59;;;;;;;0.00;0.00;;;33.90;16.10;;;;;;5046015;28;20494;-76
2022/07/20 07:52:25;;;;;;;0.00;0.00;;;34.30;16.40;;;;;;5047664;28;20055;-77
2022/07/20 07:54:51;;;;;;;0.00;0.00;;;34.50;17.50;;;;;;5046682;28;20399;-78
2022/07/20 07:57:17;;;;;;;0.00;0.00;;;34.60;17.90;;;;;;5050160;28;20043;-78
2022/07/20 07:59:43;;;;;;;0.00;0.00;;;34.80;16.90;;;;;;5047202;28;20523;-78
2022/07/20 08:02:09;;;;;;;0.00;0.00;;;35.00;16.70;;;;;;5063378;28;20487;-78
2022/07/20 08:04:35;;;;;;;0.28;0.13;;;34.80;16.00;;;;;;5041657;28;20028;-78
2022/07/20 08:07:02;;;;;;;0.00;0.00;;;34.90;16.90;;;;;;5051877;28;20025;-77
2022/07/20 08:09:29;;;;;;;0.00;0.00;;;34.70;17.10;;;;;;5052895;28;20088;-78
2022/07/20 08:11:55;;;;;;;0.90;0.10;;;34.70;17.90;;;;;;5048671;28;20490;-77
2022/07/20 08:14:21;;;;;;;0.68;0.32;;;34.80;19.10;;;;;;5053647;28;20463;-82
2022/07/20 08:16:48;;;;;;;0.00;0.00;;;34.70;17.30;;;;;;5050263;28;20086;-79
2022/07/20 08:19:14;;;;;;;0.00;0.00;;;34.70;18.10;;;;;;5048192;28;20029;-79
2022/07/20 08:21:40;;;;;;;0.00;0.00;;;34.80;18.50;;;;;;5050066;28;20020;-77
2022/07/20 08:24:06;;;;;;;0.30;0.30;;;34.40;18.80;;;;;;5045687;28;20040;-78
2022/07/20 08:26:34;;;;;;;0.00;0.00;;;34.60;19.80;;;;;;5051271;28;20128;-79
2022/07/20 08:29:00;;;;;;;0.28;0.20;;;34.70;20.60;;;;;;5048463;28;20572;-78
2022/07/20 08:31:26;;;;;;;0.85;0.55;;;34.70;21.10;;;;;;5051727;28;20021;-80
2022/07/20 08:34:00;;;;;;;0.10;0.10;;;35.00;21.00;;;;;;5046797;28;20104;-77
2022/07/20 08:36:26;;;;;;;0.00;0.00;;;34.80;19.40;;;;;;5051147;28;20028;-77
2022/07/20 08:38:52;;;;;;;0.00;0.00;;;34.80;20.20;;;;;;5051584;28;20364;-79
2022/07/20 08:41:18;;;;;;;0.00;0.00;;;34.80;20.70;;;;;;5051775;28;20032;-79
2022/07/20 08:43:44;;;;;;;0.00;0.00;;;34.90;21.60;;;;;;5054460;28;20025;-78
2022/07/20 08:46:11;;;;;;;0.25;0.22;;;34.70;21.70;;;;;;5069660;28;20021;-86
2022/07/20 08:48:42;;;;;;;0.20;0.00;;;35.00;20.80;;;;;;5062830;28;20028;-77
2022/07/20 08:51:08;;;;;;;0.00;0.00;;;35.10;20.30;;;;;;5068344;28;20056;-76
2022/07/20 08:53:34;;;;;;;9.27;0.45;;;35.10;20.50;;;;;;5060420;28;20049;-76
2022/07/20 08:56:00;;;;;;;1.17;0.10;;;35.30;20.10;;;;;;5064328;28;20025;-77
2022/07/20 08:58:26;;;;;;;0.57;0.57;;;35.20;19.50;;;;;;5055628;28;20499;-77
2022/07/20 09:00:52;;;;;;;0.00;0.00;;;35.20;20.10;;;;;;5058349;28;20029;-77
2022/07/20 09:03:18;;;;;;;0.00;0.00;;;35.00;21.10;;;;;;5061156;28;20055;-78
2022/07/20 09:05:45;;;;;;;0.00;0.00;;;35.30;20.40;;;;;;5056217;28;20526;-78
2022/07/20 09:08:17;;;;;;;0.00;0.00;;;35.70;20.60;;;;;;5052144;28;20013;-77
2022/07/20 09:10:46;;;;;;;0.00;0.00;;;35.80;20.80;;;;;;5060305;28;20059;-78
2022/07/20 09:13:19;;;;;;;1.08;0.82;;;35.60;21.30;;;;;;5053697;28;20061;-77
2022/07/20 09:15:52;;;;;;;0.52;0.30;;;35.50;19.90;;;;;;5062859;28;20116;-77
2022/07/20 09:18:20;;;;;;;0.00;0.00;;;35.30;19.90;;;;;;5050530;28;20064;-78
2022/07/20 09:20:58;;;;;;;0.28;0.15;;;35.10;20.00;;;;;;5049108;28;20029;-77
2022/07/20 09:23:31;;;;;;;0.13;0.10;;;35.10;18.90;;;;;;5052199;28;20032;-79
2022/07/20 09:26:02;;;;;;;4.07;0.35;;;35.20;17.70;;;;;;5053021;28;20032;-77
2022/07/20 09:28:45;;;;;;;0.00;0.00;;;35.50;21.20;;;;;;5052695;28;20020;-78
2022/07/20 09:31:25;;;;;;;0.00;0.00;;;35.60;20.90;;;;;;5050895;28;20025;-78
2022/07/20 09:34:14;;;;;;;0.00;0.00;;;35.60;21.40;;;;;;5050975;28;20040;-77
2022/07/20 09:36:43;;;;;;;0.20;0.10;;;35.70;19.70;;;;;;5067625;28;20024;-79
2022/07/20 09:39:14;;;;;;;0.00;0.00;;;35.70;20.50;;;;;;5048944;28;20040;-81
2022/07/20 09:41:45;;;;;;;0.10;0.10;;;35.50;20.70;;;;;;5050151;28;20479;-79
2022/07/20 09:44:21;;;;;;;0.00;0.00;;;35.40;21.40;;;;;;5050343;28;20059;-79
2022/07/20 09:46:47;;;;;;;0.38;0.35;;;35.40;22.10;;;;;;5051548;28;20025;-80
2022/07/20 09:49:13;;;;;;;1.35;0.47;;;35.40;24.20;;;;;;5052271;28;20048;-80
2022/07/20 09:51:44;;;;;;;0.00;0.00;;;35.30;24.30;;;;;;5049131;28;20068;-80
2022/07/20 09:54:13;;;;;;;0.15;0.15;;;35.10;24.20;;;;;;5047573;28;20093;-78
2022/07/20 09:56:42;;;;;;;0.00;0.00;;;35.20;23.00;;;;;;5047980;28;20105;-77
2022/07/20 09:59:10;;;;;;;0.00;0.00;;;35.10;23.40;;;;;;5050877;28;20028;-77
2022/07/20 10:01:42;;;;;;;0.10;0.10;;;35.20;23.00;;;;;;5048591;28;20078;-78
2022/07/20 10:04:10;;;;;;;0.40;0.40;;;35.30;23.60;;;;;;5054635;28;20102;-77
2022/07/20 10:06:38;;;;;;;0.00;0.00;;;35.20;23.60;;;;;;5057409;28;20029;-78
2022/07/20 10:09:06;;;;;;;0.00;0.00;;;35.20;22.30;;;;;;5055452;28;20017;-77
2022/07/20 10:11:33;;;;;;;0.00;0.00;;;35.40;22.00;;;;;;5053224;28;20480;-77
2022/07/20 10:14:04;;;;;;;0.00;0.00;;;35.50;22.10;;;;;;5058539;28;20040;-80
2022/07/20 10:16:50;;;;;;;0.00;0.00;;;35.50;21.60;;;;;;5070012;28;20295;-78
2022/07/20 10:19:16;;;;;;;0.00;0.00;;;35.60;21.20;;;;;;5072713;28;20067;-78
2022/07/20 10:21:47;;;;;;;0.90;0.52;;;35.80;21.70;;;;;;5072565;28;20017;-77
2022/07/20 10:24:33;;;;;;;0.00;0.00;;;35.60;21.00;;;;;;5046785;28;20033;-76
2022/07/20 10:27:12;;;;;;;0.00;0.00;;;35.60;21.60;;;;;;5049104;28;20030;-78
2022/07/20 10:29:39;;;;;;;0.00;0.00;;;35.50;22.60;;;;;;5053565;28;20037;-80
2022/07/20 10:32:23;;;;;;;0.00;0.00;;;35.50;21.00;;;;;;5050286;28;20054;-80
2022/07/20 10:34:58;;;;;;;0.05;0.05;;;35.30;21.20;;;;;;5052298;28;20499;-80
2022/07/20 10:37:36;;;;;;;0.00;0.00;;;35.10;21.80;;;;;;5050491;28;20520;-77
2022/07/20 10:40:11;;;;;;;0.00;0.00;;;35.00;21.60;;;;;;5045943;28;20486;-79
2022/07/20 10:42:49;;;;;;;0.00;0.00;;;35.00;21.80;;;;;;5047425;28;20085;-80
2022/07/20 10:45:20;;;;;;;0.63;0.38;;;35.00;22.20;;;;;;5049679;28;20032;-75
2022/07/20 10:47:48;;;;;;;0.57;0.57;;;35.00;22.30;;;;;;5046482;28;20029;-75
2022/07/20 10:50:23;;;;;;;0.05;0.05;;;34.80;21.80;;;;;;5046195;28;20032;-76
2022/07/20 10:52:53;;;;;;;0.55;0.20;;;34.70;22.60;;;;;;5061005;28;20033;-75
2022/07/20 10:55:34;;;;;;;0.00;0.00;;;34.60;21.80;;;;;;5045057;28;20111;-76
2022/07/20 10:58:13;;;;;;;0.65;0.20;;;34.60;21.90;;;;;;5042523;28;20431;-75
2022/07/20 11:00:47;;;;;;;1.27;0.45;;;34.60;21.40;;;;;;5043082;28;20417;-74
2022/07/20 11:03:19;;;;;;;0.35;0.30;;;34.50;21.50;;;;;;5045498;28;20021;-75
2022/07/20 11:05:47;;;;;;;0.00;0.00;;;34.50;21.30;;;;;;5045043;28;20328;-74
2022/07/20 11:08:13;;;;;;;0.10;0.10;;;34.50;21.20;;;;;;5045859;28;20027;-78
2022/07/20 11:10:42;;;;;;;0.00;0.00;;;34.60;21.00;;;;;;5047340;28;20367;-76
2022/07/20 11:13:12;;;;;;;0.00;0.00;;;34.70;20.00;;;;;;5046200;28;20033;-76
2022/07/20 11:15:47;;;;;;;0.10;0.10;;;34.60;20.70;;;;;;5046833;28;20059;-76
2022/07/20 11:18:25;;;;;;;0.00;0.00;;;34.50;20.80;;;;;;5044537;28;20090;-77
2022/07/20 11:21:04;;;;;;;0.00;0.00;;;34.50;21.10;;;;;;5045062;28;20017;-76
2022/07/20 11:23:48;;;;;;;0.00;0.00;;;34.60;21.00;;;;;;5041094;28;20386;-76
2022/07/20 11:26:15;;;;;;;0.10;0.10;;;34.70;21.70;;;;;;5048201;28;20379;-75
2022/07/20 11:28:52;;;;;;;0.00;0.00;;;34.60;20.50;;;;;;5051073;28;20033;-82
2022/07/20 11:31:30;;;;;;;0.00;0.00;;;34.60;20.00;;;;;;5047191;28;20673;-75
2022/07/20 11:34:05;;;;;;;0.00;0.00;;;34.60;20.00;;;;;;5069658;28;20032;-76
2022/07/20 11:36:35;;;;;;;0.00;0.00;;;34.70;21.00;;;;;;5042901;28;20017;-75
2022/07/20 11:39:16;;;;;;;0.00;0.00;;;34.60;21.00;;;;;;5050482;28;20021;-76
2022/07/20 11:41:44;;;;;;;0.00;0.00;;;34.50;20.50;;;;;;5050815;28;20025;-74
2022/07/20 11:44:23;;;;;;;3.15;0.80;;;34.50;20.90;;;;;;5054112;28;20029;-76
2022/07/20 11:46:50;;;;;;;0.00;0.00;;;34.60;21.00;;;;;;5049084;28;20380;-77
2022/07/20 11:49:17;;;;;;;0.00;0.00;;;34.50;21.60;;;;;;5048670;28;20039;-76
2022/07/20 11:51:55;;;;;;;0.00;0.00;;;34.60;22.00;;;;;;5047221;28;20507;-75
2022/07/20 11:54:23;;;;;;;0.00;0.00;;;34.60;22.30;;;;;;5051019;28;20071;-77
2022/07/20 11:56:50;;;;;;;0.82;0.82;;;34.60;21.80;;;;;;5054759;28;20027;-75
2022/07/20 11:59:16;;;;;;;0.00;0.00;;;34.50;22.30;;;;;;5050148;28;20722;-75
2022/07/20 12:01:43;;;;;;;0.10;0.10;;;34.50;22.80;;;;;;5052622;28;20087;-76
2022/07/20 12:04:13;;;;;;;0.00;0.00;;;34.30;23.40;;;;;;5054298;28;20146;-73
2022/07/20 12:06:40;;;;;;;0.00;0.00;;;34.20;23.80;;;;;;5045754;28;20506;-74
2022/07/20 12:09:15;;;;;;;7.13;0.55;;;34.20;23.60;;;;;;5050214;28;20463;-74
2022/07/20 12:12:01;;;;;;;0.00;0.00;;;34.30;23.40;;;;;;5051927;28;20055;-74
2022/07/20 12:14:33;;;;;;;0.00;0.00;;;34.20;24.50;;;;;;5052333;28;20029;-74
2022/07/20 12:17:20;;;;;;;0.00;0.00;;;34.20;24.30;;;;;;5057026;28;20099;-74
2022/07/20 12:19:49;;;;;;;0.00;0.00;;;34.20;24.20;;;;;;5052402;28;20476;-74
2022/07/20 12:22:23;;;;;;;0.00;0.00;;;34.20;25.00;;;;;;5065529;28;20257;-77
2022/07/20 12:25:00;;;;;;;0.00;0.00;;;34.20;24.70;;;;;;5071074;28;20115;-80
2022/07/20 12:27:33;;;;;;;0.15;0.15;;;34.30;24.90;;;;;;5055612;28;20082;-77
2022/07/20 12:30:00;;;;;;;0.00;0.00;;;34.20;25.20;;;;;;5050532;28;20037;-72
2022/07/20 12:32:35;;;;;;;0.00;0.00;;;34.20;25.50;;;;;;5051883;28;20025;-73
2022/07/20 12:35:06;;;;;;;0.00;0.00;;;34.30;25.50;;;;;;5052753;28;20116;-73
2022/07/20 12:38:05;;;;;;;0.00;0.00;;;34.20;25.50;;;;;;5053758;28;20025;-73
2022/07/20 12:40:39;;;;;;;0.00;0.00;;;34.20;26.10;;;;;;5008875;28;20038;-73
2022/07/20 12:43:32;;;;;;;0.00;0.00;;;34.20;26.10;;;;;;5042493;28;20021;-72
2022/07/20 12:46:07;;;;;;;0.00;0.00;;;34.10;26.20;;;;;;5041021;28;20032;-72
2022/07/20 12:48:34;;;;;;;0.00;0.00;;;34.00;26.80;;;;;;5054412;28;20021;-72
2022/07/20 12:51:00;;;;;;;0.00;0.00;;;34.10;26.90;;;;;;5053176;28;20024;-72
2022/07/20 12:53:28;;;;;;;0.00;0.00;;;34.00;26.70;;;;;;5051283;28;20045;-72
2022/07/20 12:55:54;;;;;;;0.00;0.00;;;34.00;26.60;;;;;;5054670;28;20017;-72
2022/07/20 12:58:20;;;;;;;1.65;0.32;;;33.90;26.70;;;;;;5054053;28;20104;-72
2022/07/20 13:00:46;;;;;;;2.58;2.47;;;34.00;26.60;;;;;;5052852;28;20471;-72